หน้าหลัก
METAR-TAF:

METAR-TAF

ท่าอากาศยาน :

Hwange National Park, ซิมบับเว

ละติจูด: 18-38S, ลองจิจูด: 027-00E, ความสูง: 1079 ม.

การสังเกตสภาพอากาศปัจจุบัน

รายงานได้ทำขึ้นเมื่อ 3 ชั่วโมงและ 25 นาทีที่แล้ว ณ เวลา 06:00 UTC
ลม 3 นอตจากตะวันออก/ตะวันออกเฉียงใต้
อุณหภูมิ 14°C
ความชื้น 33%
ความกดอากาศ 1024 hPa
ทัศนวิสัย 10 กม. หรือมากกว่า
ไม่มีเมฆต่ำกว่า 1,500 ม. และไม่มีเมฆคิวมูโลนิมบัส

METAR: FVWN 180600Z 11003KT CAVOK 14/M02 Q1024

เวลา: 11:25 (09:25 UTC)


TAF: หายไป

สังเกตการณ์สภาพอากาศและพยากรณ์อากาศของสนามบินมากกว่า 4000 แห่ง (รายงาน METAR และ TAF).

สถานีที่ดูได้จะแสดงไว้ด้วยจุดสีเหลืองและสีแดงบนแผนที่.

เลื่อนเมาส์ไปเหนือจุดเพื่อดูชื่อสถานี.

แล้วคลิกเพื่อดูสังเกตการณ์และการพยากรณ์สภาพอากาศ.

ในการเปลี่ยนแผนที่: คลิกที่ปุ่มสีเขียวที่มีกากบาทสีดำเพื่อซูมเข้า; ที่ปุ่มสีเขียวที่มีขีดเพื่อซูมออก; หรือที่ลูกศรสีเขียวเพื่อไปยังแผนที่ที่อยู่ติดกัน.


METAR-TAF: